Time;durP1;ratioP1;P1;durP2;ratioP2;P2;SDS_P1;SDS_P2;PMS_P1;PMS_P2;Temp;Humidity;BMP_temperature;BMP_pressure;BME280_temperature;BME280_humidity;BME280_pressure;Samples;Min_cycle;Max_cycle;Signal;HPM_P1;HPM_P2
2022/01/27 00:01:01;;;;;;;42.78;14.18;;;5.50;92.00;;;;;;5012758;28;20299;-65
2022/01/27 00:03:32;;;;;;;40.55;14.10;;;5.50;92.20;;;;;;5012719;28;20037;-65
2022/01/27 00:06:04;;;;;;;36.50;12.77;;;5.50;92.10;;;;;;5012245;28;20021;-65
2022/01/27 00:08:38;;;;;;;37.17;13.70;;;5.60;92.10;;;;;;5012257;28;20140;-65
2022/01/27 00:11:11;;;;;;;40.10;13.38;;;5.60;92.10;;;;;;5008165;28;20074;-65
2022/01/27 00:13:44;;;;;;;36.58;12.88;;;5.50;92.20;;;;;;5014552;28;20110;-65
2022/01/27 00:16:15;;;;;;;35.03;12.48;;;5.50;92.00;;;;;;5007644;28;20029;-65
2022/01/27 00:18:47;;;;;;;37.45;12.30;;;5.50;91.90;;;;;;5011754;28;20059;-65
2022/01/27 00:21:15;;;;;;;32.10;11.55;;;5.60;92.20;;;;;;5013072;28;20421;-65
2022/01/27 00:23:41;;;;;;;33.45;12.13;;;5.50;92.00;;;;;;5011186;28;20683;-65
2022/01/27 00:26:07;;;;;;;32.03;12.50;;;5.60;92.10;;;;;;5007353;28;20059;-65
2022/01/27 00:28:33;;;;;;;37.78;12.32;;;5.50;92.00;;;;;;5010209;28;20120;-65
2022/01/27 00:30:59;;;;;;;35.58;12.07;;;5.50;91.80;;;;;;5009849;28;20033;-65
2022/01/27 00:33:25;;;;;;;31.23;10.88;;;5.40;92.00;;;;;;5011668;28;20022;-64
2022/01/27 00:35:51;;;;;;;32.38;11.23;;;5.40;92.20;;;;;;5017477;28;20040;-64
2022/01/27 00:38:17;;;;;;;26.75;10.05;;;5.40;92.40;;;;;;5012874;28;20060;-64
2022/01/27 00:40:44;;;;;;;37.03;12.45;;;5.40;92.30;;;;;;5009465;28;20073;-64
2022/01/27 00:43:10;;;;;;;31.02;11.43;;;5.50;92.20;;;;;;5013030;28;20695;-64
2022/01/27 00:45:36;;;;;;;32.60;11.77;;;5.40;92.00;;;;;;5011242;28;20120;-64
2022/01/27 00:48:04;;;;;;;32.15;11.80;;;5.40;92.00;;;;;;5012503;28;20029;-64
2022/01/27 00:50:32;;;;;;;27.73;9.18;;;5.50;91.90;;;;;;5010169;28;20071;-64
2022/01/27 00:53:00;;;;;;;26.95;10.65;;;5.50;92.00;;;;;;5006301;28;20068;-64
2022/01/27 00:55:28;;;;;;;31.08;11.80;;;5.50;91.90;;;;;;5011671;28;20045;-64
2022/01/27 00:58:17;;;;;;;26.40;9.95;;;5.50;91.90;;;;;;5010631;28;20076;-64
2022/01/27 01:00:52;;;;;;;28.80;10.65;;;5.40;91.90;;;;;;5014404;28;20076;-64
2022/01/27 01:03:27;;;;;;;25.65;10.35;;;5.40;91.80;;;;;;5010319;28;20061;-64
2022/01/27 01:06:23;;;;;;;25.77;10.02;;;5.40;91.90;;;;;;5011486;28;20057;-64
2022/01/27 01:34:59;;;;;;;20.88;8.60;;;5.70;91.30;;;;;;5016064;28;20033;-65
2022/01/27 01:37:25;;;;;;;24.33;8.45;;;5.70;91.20;;;;;;5010731;28;20042;-65
2022/01/27 01:39:50;;;;;;;18.30;8.63;;;5.70;91.10;;;;;;5013600;28;20041;-65
2022/01/27 01:42:16;;;;;;;19.92;8.13;;;5.70;91.20;;;;;;5014178;28;20037;-65
2022/01/27 01:44:43;;;;;;;23.02;8.55;;;5.70;91.00;;;;;;5011334;28;20048;-64
2022/01/27 01:47:09;;;;;;;23.55;8.77;;;5.70;90.90;;;;;;5010302;28;20225;-65
2022/01/27 01:49:35;;;;;;;16.85;8.55;;;5.70;91.00;;;;;;5010003;28;20048;-65
2022/01/27 01:52:06;;;;;;;24.55;9.45;;;5.70;90.80;;;;;;5012630;28;20163;-65
2022/01/27 01:54:32;;;;;;;17.10;7.95;;;5.60;91.00;;;;;;5016316;28;20040;-65
2022/01/27 01:56:59;;;;;;;24.30;9.63;;;5.50;91.10;;;;;;5010981;28;20042;-64
2022/01/27 01:59:25;;;;;;;19.40;9.10;;;5.50;91.40;;;;;;5013815;28;20462;-65
2022/01/27 02:01:51;;;;;;;23.88;9.10;;;5.50;91.20;;;;;;5017699;28;20112;-64
2022/01/27 02:04:17;;;;;;;19.55;8.88;;;5.50;91.30;;;;;;5011880;28;20680;-65
2022/01/27 02:06:54;;;;;;;18.85;9.18;;;5.50;91.40;;;;;;5016837;28;20026;-65
2022/01/27 02:19:59;;;;;;;23.05;9.30;;;5.50;91.60;;;;;;5014205;28;20044;-65
2022/01/27 02:22:25;;;;;;;19.35;9.20;;;5.50;91.40;;;;;;5019107;28;20473;-65
2022/01/27 02:24:52;;;;;;;23.50;9.68;;;5.50;91.60;;;;;;5015440;28;20540;-65
2022/01/27 02:27:18;;;;;;;20.67;9.48;;;5.50;91.50;;;;;;5015514;28;20026;-65
2022/01/27 02:29:45;;;;;;;18.70;9.82;;;5.40;91.50;;;;;;5013646;28;20164;-65
2022/01/27 02:32:13;;;;;;;24.38;9.63;;;5.50;91.60;;;;;;5019109;28;20041;-66
2022/01/27 02:34:39;;;;;;;21.88;8.90;;;5.50;91.40;;;;;;5018372;28;20033;-65
2022/01/27 02:37:05;;;;;;;22.30;8.95;;;5.40;91.50;;;;;;5013858;28;20076;-66
2022/01/27 02:39:31;;;;;;;21.50;9.63;;;5.50;91.60;;;;;;5016454;28;21025;-65
2022/01/27 02:42:16;;;;;;;22.35;10.35;;;5.50;91.50;;;;;;5014573;28;20033;-65
2022/01/27 02:44:48;;;;;;;23.33;9.88;;;5.60;91.50;;;;;;5012951;28;20759;-65
2022/01/27 02:47:15;;;;;;;21.02;9.05;;;5.60;91.40;;;;;;5019624;28;20074;-66
2022/01/27 02:49:41;;;;;;;18.60;8.70;;;5.60;91.40;;;;;;5018371;28;20021;-65
2022/01/27 02:52:08;;;;;;;20.40;8.65;;;5.70;91.30;;;;;;5007657;28;20041;-65
2022/01/27 02:54:34;;;;;;;19.65;9.15;;;5.60;91.30;;;;;;5026554;28;20117;-65
2022/01/27 02:57:00;;;;;;;23.67;10.13;;;5.60;91.40;;;;;;5013564;28;20040;-65
2022/01/27 02:59:26;;;;;;;22.77;9.30;;;5.60;91.50;;;;;;5012646;28;20037;-66
2022/01/27 03:01:52;;;;;;;21.63;9.10;;;5.60;91.50;;;;;;5017001;28;20033;-65
2022/01/27 03:04:19;;;;;;;20.77;9.85;;;5.70;91.50;;;;;;5015857;28;20044;-66
2022/01/27 03:06:46;;;;;;;17.00;8.20;;;5.70;91.40;;;;;;5015124;28;20116;-65
2022/01/27 03:09:13;;;;;;;17.08;8.43;;;5.80;91.30;;;;;;5016413;28;20061;-65
2022/01/27 03:11:46;;;;;;;17.73;7.78;;;5.80;91.30;;;;;;5013032;28;20022;-65
2022/01/27 03:14:15;;;;;;;15.25;7.63;;;5.80;91.10;;;;;;5011449;28;20133;-65
2022/01/27 03:16:41;;;;;;;20.55;8.75;;;5.90;91.10;;;;;;5012931;28;20207;-65
2022/01/27 03:19:08;;;;;;;19.10;7.90;;;5.90;90.70;;;;;;5010646;28;20042;-65
2022/01/27 03:21:34;;;;;;;15.55;7.68;;;5.90;91.00;;;;;;5012956;28;20030;-65
2022/01/27 03:24:00;;;;;;;15.88;8.35;;;6.00;90.90;;;;;;5014567;28;20050;-65
2022/01/27 03:26:27;;;;;;;15.80;7.40;;;6.00;90.80;;;;;;5011082;28;20054;-66
2022/01/27 03:28:53;;;;;;;16.83;8.10;;;5.90;90.80;;;;;;5019239;28;20501;-65
2022/01/27 03:31:19;;;;;;;16.02;7.50;;;5.90;91.00;;;;;;5016890;28;20033;-65
2022/01/27 03:33:45;;;;;;;18.30;7.43;;;5.90;90.90;;;;;;5017083;28;20022;-66
2022/01/27 03:36:12;;;;;;;16.65;8.18;;;5.90;90.80;;;;;;5012718;28;20040;-65
2022/01/27 03:38:38;;;;;;;16.90;7.43;;;6.00;90.70;;;;;;5015036;28;20025;-65
2022/01/27 03:41:08;;;;;;;14.35;7.13;;;6.00;90.60;;;;;;5012439;28;20033;-65
2022/01/27 03:43:36;;;;;;;15.30;6.90;;;6.00;90.70;;;;;;5027609;28;20041;-66
2022/01/27 03:46:03;;;;;;;11.32;6.57;;;6.00;90.90;;;;;;5026787;28;20041;-65
2022/01/27 03:48:29;;;;;;;13.57;6.80;;;5.90;90.70;;;;;;5011621;28;20041;-65
2022/01/27 03:50:55;;;;;;;14.45;6.82;;;5.90;90.90;;;;;;5010980;28;20032;-65
2022/01/27 03:53:21;;;;;;;10.73;6.10;;;5.90;90.70;;;;;;5010293;28;20059;-65
2022/01/27 03:55:47;;;;;;;14.27;6.40;;;6.00;90.80;;;;;;5008206;28;20034;-65
2022/01/27 03:58:13;;;;;;;12.32;6.45;;;6.00;90.80;;;;;;5018751;28;20078;-65
2022/01/27 04:00:39;;;;;;;12.55;6.57;;;6.00;90.40;;;;;;5016840;28;20034;-65
2022/01/27 04:03:08;;;;;;;13.00;6.20;;;6.00;90.60;;;;;;5015171;28;20029;-66
2022/01/27 04:05:38;;;;;;;13.38;5.97;;;6.10;90.40;;;;;;5014916;28;20033;-65
2022/01/27 04:08:06;;;;;;;12.65;6.32;;;6.00;90.50;;;;;;5013481;28;20421;-65
2022/01/27 04:10:32;;;;;;;9.13;5.78;;;6.10;90.40;;;;;;5016652;28;20041;-67
2022/01/27 04:12:58;;;;;;;10.55;5.75;;;6.10;90.20;;;;;;5015197;28;20048;-65
2022/01/27 04:15:24;;;;;;;14.32;6.28;;;6.10;90.40;;;;;;5012159;28;20041;-65
2022/01/27 04:17:51;;;;;;;10.95;5.82;;;6.20;90.00;;;;;;5012881;28;20108;-64
2022/01/27 04:20:17;;;;;;;9.77;5.90;;;6.10;89.80;;;;;;5011830;28;20490;-65
2022/01/27 04:22:43;;;;;;;10.85;6.28;;;5.90;90.10;;;;;;5012323;28;20104;-65
2022/01/27 04:25:09;;;;;;;11.90;5.93;;;5.90;90.40;;;;;;5010960;28;20124;-65
2022/01/27 04:27:38;;;;;;;12.10;5.97;;;5.90;90.30;;;;;;5013661;28;20120;-65
2022/01/27 04:30:07;;;;;;;12.65;5.38;;;5.90;90.50;;;;;;5014751;28;20029;-65
2022/01/27 04:32:41;;;;;;;12.23;5.78;;;6.00;90.30;;;;;;5010743;28;20041;-65
2022/01/27 04:35:10;;;;;;;8.93;5.20;;;6.00;90.20;;;;;;5010746;28;20033;-65
2022/01/27 04:37:41;;;;;;;9.60;5.55;;;6.00;90.30;;;;;;5008171;28;20076;-64
2022/01/27 04:40:14;;;;;;;12.05;6.25;;;6.10;89.70;;;;;;5013301;28;20068;-65
2022/01/27 04:42:54;;;;;;;8.27;5.20;;;6.00;89.50;;;;;;5013920;28;20584;-64
2022/01/27 04:45:25;;;;;;;14.13;6.28;;;6.10;89.60;;;;;;5010737;28;20480;-64
2022/01/27 04:47:56;;;;;;;10.98;5.70;;;6.00;89.80;;;;;;5013664;28;20021;-65
2022/01/27 04:50:22;;;;;;;8.77;5.50;;;5.90;89.80;;;;;;5009221;28;20041;-64
2022/01/27 04:52:50;;;;;;;11.00;5.35;;;6.00;90.10;;;;;;5011366;28;20503;-64
2022/01/27 04:55:18;;;;;;;10.45;5.70;;;6.00;90.00;;;;;;5016855;28;20065;-64
2022/01/27 04:57:45;;;;;;;14.07;6.22;;;6.10;89.00;;;;;;5014526;28;20544;-65
2022/01/27 05:00:14;;;;;;;14.00;6.07;;;6.10;89.10;;;;;;5013559;28;20029;-65
2022/01/27 05:02:56;;;;;;;10.32;5.82;;;6.10;89.00;;;;;;5009043;28;20027;-65
2022/01/27 05:05:22;;;;;;;8.77;5.40;;;6.10;89.10;;;;;;5023110;28;20077;-65
2022/01/27 05:07:55;;;;;;;11.50;5.70;;;6.10;88.70;;;;;;5013879;28;20033;-65
2022/01/27 05:10:25;;;;;;;9.00;5.43;;;6.10;88.40;;;;;;5013334;28;20038;-65
2022/01/27 05:12:54;;;;;;;9.52;5.28;;;6.10;89.00;;;;;;5012645;28;20139;-65
2022/01/27 05:15:21;;;;;;;9.75;5.68;;;6.00;88.10;;;;;;5014092;28;20413;-67
2022/01/27 05:17:47;;;;;;;11.40;5.82;;;6.00;89.00;;;;;;4992954;28;20136;-67
2022/01/27 05:20:13;;;;;;;9.00;4.95;;;6.00;88.90;;;;;;5014352;28;20038;-68
2022/01/27 05:22:38;;;;;;;10.68;5.90;;;5.90;88.30;;;;;;5011108;28;20021;-67
2022/01/27 05:25:04;;;;;;;9.85;5.55;;;6.00;88.40;;;;;;5010246;28;20890;-68
2022/01/27 05:27:30;;;;;;;11.20;6.43;;;5.90;88.90;;;;;;5024988;28;20187;-67
2022/01/27 05:29:55;;;;;;;12.80;5.70;;;5.90;89.20;;;;;;5011549;28;20061;-67
2022/01/27 05:32:21;;;;;;;12.23;6.43;;;5.80;88.90;;;;;;5014719;28;20149;-67
2022/01/27 05:34:47;;;;;;;14.60;7.30;;;5.80;89.60;;;;;;5015342;28;20041;-67
2022/01/27 05:37:13;;;;;;;11.52;6.22;;;5.80;89.30;;;;;;5019922;28;20057;-67
2022/01/27 05:39:38;;;;;;;11.90;6.75;;;5.70;89.50;;;;;;5019109;28;20846;-67
2022/01/27 05:42:04;;;;;;;12.23;6.85;;;5.70;90.00;;;;;;5018195;28;20976;-67
2022/01/27 05:44:33;;;;;;;15.38;7.05;;;5.70;90.10;;;;;;5028287;28;20512;-67
2022/01/27 05:46:58;;;;;;;12.00;6.38;;;5.70;90.00;;;;;;5011429;28;20026;-67
2022/01/27 05:49:24;;;;;;;10.35;6.57;;;5.70;89.70;;;;;;5020667;28;20048;-67
2022/01/27 05:51:50;;;;;;;12.98;6.68;;;5.60;90.10;;;;;;5016879;28;20031;-66
2022/01/27 05:54:16;;;;;;;11.07;6.70;;;5.60;90.10;;;;;;5016928;28;20049;-69
2022/01/27 05:56:42;;;;;;;15.20;7.30;;;5.70;90.10;;;;;;5012181;28;20054;-69
2022/01/27 05:59:07;;;;;;;14.10;7.22;;;5.80;90.00;;;;;;5015823;28;20041;-69
2022/01/27 06:01:33;;;;;;;13.50;7.63;;;5.80;89.60;;;;;;5014520;28;20030;-69
2022/01/27 06:03:59;;;;;;;14.90;7.43;;;5.80;89.70;;;;;;5011080;28;20053;-69
2022/01/27 06:06:25;;;;;;;16.08;7.65;;;5.80;90.10;;;;;;5019960;28;20994;-69
2022/01/27 06:08:51;;;;;;;15.23;7.50;;;5.80;89.40;;;;;;5017925;28;20029;-69
2022/01/27 06:11:17;;;;;;;14.38;8.18;;;5.90;89.60;;;;;;5015382;28;20029;-66
2022/01/27 06:13:43;;;;;;;15.02;8.98;;;6.00;89.20;;;;;;5011826;28;20084;-67
2022/01/27 06:16:11;;;;;;;16.33;8.30;;;5.90;89.60;;;;;;5020465;28;20044;-68
2022/01/27 06:18:37;;;;;;;13.48;7.53;;;5.90;89.90;;;;;;5016674;28;20041;-67
2022/01/27 06:21:05;;;;;;;15.85;9.27;;;5.90;89.60;;;;;;5016578;28;20057;-68
2022/01/27 06:23:31;;;;;;;20.05;10.10;;;5.90;89.80;;;;;;5016364;28;20084;-68
2022/01/27 06:25:58;;;;;;;16.33;8.88;;;5.70;90.00;;;;;;5016810;28;20037;-68
2022/01/27 06:28:24;;;;;;;17.48;9.77;;;5.70;90.40;;;;;;5016192;28;20033;-68
2022/01/27 06:30:51;;;;;;;20.55;10.32;;;5.80;90.20;;;;;;5001673;28;20398;-69
2022/01/27 06:33:16;;;;;;;21.60;10.45;;;5.80;90.10;;;;;;5019996;28;20045;-68
2022/01/27 06:35:42;;;;;;;21.65;10.73;;;5.80;89.40;;;;;;5015808;28;20037;-68
2022/01/27 06:38:08;;;;;;;22.00;11.55;;;5.80;90.10;;;;;;5017080;28;20052;-68
2022/01/27 06:40:34;;;;;;;20.35;10.50;;;5.70;90.00;;;;;;5013980;28;20031;-68
2022/01/27 06:43:00;;;;;;;24.73;12.05;;;5.60;90.20;;;;;;5008668;28;20061;-68
2022/01/27 06:45:26;;;;;;;27.05;13.20;;;5.70;90.00;;;;;;5019719;28;20034;-69
2022/01/27 06:47:51;;;;;;;25.83;12.70;;;5.60;89.50;;;;;;5016760;28;20029;-68
2022/01/27 06:50:17;;;;;;;28.52;13.05;;;5.70;89.80;;;;;;5017502;28;20041;-68
2022/01/27 06:52:43;;;;;;;30.27;14.10;;;5.80;89.70;;;;;;5016685;28;20180;-68
2022/01/27 06:55:14;;;;;;;29.92;13.88;;;5.70;88.10;;;;;;5018376;28;20050;-68
2022/01/27 06:57:40;;;;;;;30.35;14.20;;;5.70;88.70;;;;;;5015740;28;20033;-68
2022/01/27 07:00:08;;;;;;;31.13;14.73;;;5.70;88.30;;;;;;5015356;28;20096;-68
2022/01/27 07:02:33;;;;;;;31.40;14.50;;;5.70;88.40;;;;;;5019549;28;20286;-68
2022/01/27 07:04:59;;;;;;;32.10;15.05;;;5.80;88.00;;;;;;5016411;28;20061;-68
2022/01/27 07:07:25;;;;;;;28.08;13.23;;;5.80;88.00;;;;;;5013991;28;20569;-67
2022/01/27 07:09:51;;;;;;;33.92;15.30;;;5.90;87.40;;;;;;5014072;28;20450;-67
2022/01/27 07:12:16;;;;;;;31.33;14.32;;;5.90;87.30;;;;;;5015426;28;20769;-67
2022/01/27 07:14:42;;;;;;;31.23;14.93;;;5.90;86.40;;;;;;4999267;28;20037;-67
2022/01/27 07:17:08;;;;;;;30.60;14.55;;;5.90;86.90;;;;;;5016316;28;20132;-67
2022/01/27 07:19:34;;;;;;;31.52;14.35;;;5.90;86.80;;;;;;5015828;28;20101;-67
2022/01/27 07:22:00;;;;;;;36.58;16.33;;;5.90;86.60;;;;;;5015674;28;20044;-67
2022/01/27 07:24:26;;;;;;;32.08;14.80;;;5.90;86.60;;;;;;5015172;28;20044;-67
2022/01/27 07:26:52;;;;;;;30.00;15.05;;;5.90;86.40;;;;;;5014534;28;20037;-67
2022/01/27 07:29:18;;;;;;;31.38;15.48;;;5.90;85.80;;;;;;5015796;28;20056;-67
2022/01/27 07:31:44;;;;;;;29.90;15.00;;;5.80;86.00;;;;;;5013782;28;20045;-67
2022/01/27 07:34:09;;;;;;;31.77;14.93;;;5.80;86.40;;;;;;5016742;28;20037;-67
2022/01/27 07:36:35;;;;;;;32.95;16.17;;;5.80;86.20;;;;;;5012294;28;20036;-67
2022/01/27 07:39:02;;;;;;;34.22;14.70;;;5.80;86.20;;;;;;5014895;28;20445;-67
2022/01/27 07:41:28;;;;;;;33.00;15.98;;;5.80;86.20;;;;;;5012878;28;20037;-67
2022/01/27 07:43:53;;;;;;;31.90;16.50;;;5.70;86.00;;;;;;5015736;28;20093;-68
2022/01/27 07:46:19;;;;;;;34.45;14.75;;;5.80;86.50;;;;;;5013556;28;20056;-67
2022/01/27 07:48:45;;;;;;;32.97;15.52;;;5.80;86.50;;;;;;5014111;28;20030;-67
2022/01/27 07:51:11;;;;;;;36.67;16.52;;;5.70;85.60;;;;;;5013705;28;20799;-67
2022/01/27 07:53:38;;;;;;;45.40;18.92;;;5.70;85.80;;;;;;5011063;28;20414;-67
2022/01/27 07:56:04;;;;;;;32.10;15.90;;;5.60;86.20;;;;;;5014198;28;20063;-67
2022/01/27 07:58:38;;;;;;;32.95;16.63;;;5.60;86.70;;;;;;5010830;28;20036;-64
2022/01/27 08:01:05;;;;;;;35.83;15.88;;;5.70;86.30;;;;;;5014434;28;20071;-65
2022/01/27 08:03:31;;;;;;;32.33;15.20;;;5.80;85.70;;;;;;5015410;28;20116;-65
2022/01/27 08:05:56;;;;;;;34.38;14.60;;;5.80;85.50;;;;;;5006356;28;20029;-65
2022/01/27 08:08:22;;;;;;;30.08;15.45;;;5.70;85.40;;;;;;5007966;28;20816;-65
2022/01/27 08:10:48;;;;;;;29.15;14.93;;;5.70;85.70;;;;;;5014953;28;20036;-64
2022/01/27 08:13:14;;;;;;;31.05;15.05;;;5.70;85.70;;;;;;5012985;28;20037;-65
2022/01/27 08:15:40;;;;;;;31.40;14.35;;;5.70;86.00;;;;;;5013979;28;20033;-65
2022/01/27 08:18:05;;;;;;;32.47;14.98;;;5.60;86.10;;;;;;5016474;28;20438;-65
2022/01/27 08:20:31;;;;;;;34.25;14.27;;;5.70;86.30;;;;;;5012048;28;20033;-65
2022/01/27 08:22:58;;;;;;;37.15;15.73;;;5.80;86.30;;;;;;5001292;28;20140;-66
2022/01/27 08:25:26;;;;;;;26.75;14.70;;;5.80;85.50;;;;;;5013164;28;20128;-66
2022/01/27 08:27:55;;;;;;;30.58;14.73;;;5.90;85.80;;;;;;5016083;28;20037;-65
2022/01/27 08:30:24;;;;;;;29.30;13.38;;;5.90;84.40;;;;;;5029484;28;20092;-66
2022/01/27 08:32:59;;;;;;;27.15;13.40;;;6.00;85.00;;;;;;5017062;28;20126;-66
2022/01/27 08:35:25;;;;;;;30.35;14.98;;;6.00;84.60;;;;;;5010657;28;20038;-66
2022/01/27 08:37:52;;;;;;;28.08;13.98;;;6.10;85.60;;;;;;5017776;28;20029;-66
2022/01/27 08:40:22;;;;;;;31.23;13.63;;;6.10;84.80;;;;;;5015598;28;20124;-65
2022/01/27 08:42:48;;;;;;;31.30;12.85;;;6.10;84.60;;;;;;5012392;28;20022;-64
2022/01/27 08:45:17;;;;;;;27.10;12.98;;;6.00;84.80;;;;;;5015128;28;20052;-65
2022/01/27 08:47:47;;;;;;;26.40;12.40;;;6.10;85.10;;;;;;5010086;28;20034;-65
2022/01/27 09:11:55;;;;;;;21.35;11.60;;;5.80;85.90;;;;;;5327545;23;20101;-69
2022/01/27 09:14:22;;;;;;;23.10;10.57;;;5.70;86.40;;;;;;4948487;28;20077;-70
2022/01/27 09:16:49;;;;;;;25.77;11.55;;;5.80;86.60;;;;;;4976574;28;20043;-68
2022/01/27 09:36:11;;;;;;;26.13;11.95;;;5.70;87.10;;;;;;5214783;23;20089;-69
2022/01/27 09:38:37;;;;;;;25.67;12.02;;;5.70;87.60;;;;;;4954701;28;20555;-70
2022/01/27 09:41:03;;;;;;;25.70;12.45;;;5.80;87.90;;;;;;4965568;23;20078;-74
2022/01/27 09:43:30;;;;;;;29.25;12.85;;;5.90;87.70;;;;;;4961957;28;20110;-69
2022/01/27 09:45:57;;;;;;;29.88;13.15;;;5.90;87.90;;;;;;4950393;28;20030;-72
2022/01/27 09:48:26;;;;;;;27.30;12.27;;;5.80;88.10;;;;;;4949001;28;20055;-69
2022/01/27 09:51:39;;;;;;;29.63;12.45;;;5.80;89.20;;;;;;4963468;28;20126;-69
2022/01/27 09:53:41;;;;;;;25.63;12.57;;;5.70;89.60;;;;;;4945644;28;20053;-69
2022/01/27 09:56:07;;;;;;;29.45;15.02;;;5.70;89.60;;;;;;4973115;28;20018;-70
2022/01/27 09:58:32;;;;;;;33.00;14.52;;;5.80;89.40;;;;;;4958874;28;20026;-69
2022/01/27 10:00:58;;;;;;;38.30;16.52;;;5.70;89.80;;;;;;4960771;28;20138;-69
2022/01/27 10:03:28;;;;;;;37.38;16.92;;;5.80;90.10;;;;;;4940919;28;20034;-68
2022/01/27 10:06:16;;;;;;;30.58;15.65;;;5.80;90.40;;;;;;4957449;28;20047;-69
2022/01/27 10:08:42;;;;;;;30.05;14.95;;;5.90;90.60;;;;;;4942345;28;20041;-70
2022/01/27 10:11:17;;;;;;;34.17;15.43;;;5.90;90.70;;;;;;4944311;28;20047;-69
2022/01/27 10:13:45;;;;;;;30.65;13.60;;;5.90;90.70;;;;;;4937984;28;20085;-69
2022/01/27 10:16:28;;;;;;;29.90;13.18;;;6.00;90.40;;;;;;4949392;28;20032;-69
2022/01/27 10:19:05;;;;;;;28.25;13.50;;;6.00;90.30;;;;;;4938076;28;20038;-68
2022/01/27 10:21:31;;;;;;;30.92;12.57;;;5.90;90.20;;;;;;4962191;23;20082;-69
2022/01/27 10:26:43;;;;;;;27.13;12.23;;;5.80;90.60;;;;;;5340365;22;20082;-65
2022/01/27 10:29:14;;;;;;;26.65;12.07;;;5.80;90.40;;;;;;4958066;28;20375;-65
2022/01/27 10:31:41;;;;;;;27.75;12.82;;;5.90;90.20;;;;;;4943838;28;20054;-66
2022/01/27 10:34:10;;;;;;;25.40;11.55;;;6.00;90.30;;;;;;4944505;28;20039;-65
2022/01/27 10:36:41;;;;;;;25.75;12.35;;;6.00;90.30;;;;;;4945437;28;20039;-68
2022/01/27 10:39:25;;;;;;;25.00;11.70;;;6.00;90.30;;;;;;4950427;28;20046;-65
2022/01/27 10:42:00;;;;;;;24.77;11.10;;;6.10;90.60;;;;;;4939152;28;20035;-64
2022/01/27 10:44:41;;;;;;;29.40;12.40;;;6.10;90.40;;;;;;4939915;28;20036;-64
2022/01/27 10:47:15;;;;;;;28.60;13.35;;;6.10;90.30;;;;;;4930312;29;20149;-66
2022/01/27 10:49:47;;;;;;;27.17;14.20;;;6.10;90.70;;;;;;4939690;28;20102;-68
2022/01/27 10:52:26;;;;;;;29.17;13.00;;;6.10;90.90;;;;;;4947932;28;20035;-69
2022/01/27 10:55:05;;;;;;;28.88;14.30;;;6.10;91.00;;;;;;4946234;28;20035;-70
2022/01/27 10:57:32;;;;;;;31.88;13.82;;;6.10;91.30;;;;;;4941054;28;20578;-68
2022/01/27 11:00:13;;;;;;;28.35;13.57;;;6.10;91.70;;;;;;4981624;23;20277;-71
2022/01/27 11:02:52;;;;;;;29.88;12.88;;;6.10;92.00;;;;;;4969341;28;20471;-70
2022/01/27 11:05:23;;;;;;;30.08;13.80;;;6.20;92.30;;;;;;4971129;28;20030;-71
2022/01/27 11:07:50;;;;;;;29.65;13.13;;;6.30;92.40;;;;;;4981161;28;20026;-71
2022/01/27 11:10:18;;;;;;;28.35;13.02;;;6.30;92.20;;;;;;4964781;28;20137;-72
2022/01/27 11:12:45;;;;;;;28.45;12.50;;;6.30;92.30;;;;;;4981016;28;20453;-69
2022/01/27 11:15:16;;;;;;;28.40;11.95;;;6.20;92.50;;;;;;4977916;28;20048;-68
2022/01/27 11:17:43;;;;;;;28.98;12.07;;;6.10;92.70;;;;;;4979342;28;20590;-69
2022/01/27 11:20:31;;;;;;;27.77;13.27;;;6.10;92.80;;;;;;4972958;28;20050;-71
2022/01/27 11:28:00;;;;;;;30.25;13.75;;;5.70;93.60;;;;;;4984304;28;20056;-70
2022/01/27 11:30:36;;;;;;;29.33;13.40;;;5.70;94.00;;;;;;4974966;28;20775;-69
2022/01/27 11:33:09;;;;;;;29.95;13.95;;;5.80;94.00;;;;;;4992327;28;20041;-70
2022/01/27 11:35:35;;;;;;;30.95;14.18;;;5.80;93.90;;;;;;4984979;28;20034;-70
2022/01/27 11:38:04;;;;;;;29.00;13.13;;;5.80;93.80;;;;;;4973831;28;20817;-69
2022/01/27 11:40:41;;;;;;;30.45;12.95;;;5.70;93.90;;;;;;4980412;28;20057;-69
2022/01/27 11:43:10;;;;;;;33.25;13.10;;;5.50;94.30;;;;;;4980253;28;20093;-69
2022/01/27 11:45:41;;;;;;;37.55;14.57;;;5.50;94.50;;;;;;4970820;28;20034;-69
2022/01/27 11:48:24;;;;;;;31.83;12.77;;;5.60;94.50;;;;;;4977790;28;20531;-69
2022/01/27 11:50:57;;;;;;;30.35;13.45;;;5.60;94.40;;;;;;4992155;28;20038;-70
2022/01/27 11:53:44;;;;;;;27.23;12.85;;;5.70;94.50;;;;;;4977936;28;20073;-70
2022/01/27 11:56:31;;;;;;;;;;;5.60;94.50;;;;;;4979931;28;20125;-70
2022/01/27 11:59:02;;;;;;;33.28;12.95;;;5.60;94.60;;;;;;4978900;28;20008;-69
2022/01/27 12:01:37;;;;;;;30.98;14.32;;;5.60;94.50;;;;;;4973792;28;20027;-70
2022/01/27 12:04:06;;;;;;;28.88;12.45;;;5.60;94.50;;;;;;4954184;28;20562;-70
2022/01/27 12:06:41;;;;;;;26.75;12.40;;;5.70;94.60;;;;;;4980476;28;20042;-70
2022/01/27 12:09:22;;;;;;;28.80;12.15;;;5.70;94.60;;;;;;4975110;28;20030;-70
2022/01/27 12:12:03;;;;;;;28.48;12.30;;;5.80;94.60;;;;;;4988095;28;20023;-70
2022/01/27 12:14:30;;;;;;;31.75;13.20;;;5.90;94.20;;;;;;4970220;28;20041;-70
2022/01/27 12:17:08;;;;;;;26.33;12.68;;;5.90;94.30;;;;;;4974114;28;20082;-71
2022/01/27 12:19:53;;;;;;;32.45;12.95;;;5.80;94.30;;;;;;4981462;28;20038;-69
2022/01/27 12:22:42;;;;;;;26.35;12.60;;;5.90;94.60;;;;;;4992481;28;20189;-68
2022/01/27 12:25:10;;;;;;;25.40;10.93;;;5.90;94.20;;;;;;4970200;28;20041;-66
2022/01/27 12:27:37;;;;;;;25.90;11.80;;;6.00;94.30;;;;;;4974362;28;20072;-73
2022/01/27 12:30:06;;;;;;;26.10;11.23;;;6.00;94.10;;;;;;4976595;28;20526;-74
2022/01/27 12:32:33;;;;;;;24.83;11.25;;;6.00;94.20;;;;;;4980943;28;20811;-74
2022/01/27 12:35:04;;;;;;;24.70;10.80;;;6.00;94.40;;;;;;4980539;28;20508;-74
2022/01/27 12:37:41;;;;;;;23.20;9.93;;;6.10;94.40;;;;;;4993856;28;20034;-69
2022/01/27 12:40:30;;;;;;;20.33;9.00;;;6.20;94.30;;;;;;4978210;28;20156;-70
2022/01/27 12:43:03;;;;;;;21.10;9.45;;;6.30;94.30;;;;;;4974714;28;20034;-72
2022/01/27 12:45:35;;;;;;;14.15;7.05;;;6.40;94.30;;;;;;4980544;28;20759;-71
2022/01/27 12:48:08;;;;;;;13.75;6.95;;;6.40;94.20;;;;;;4968278;28;20045;-72
2022/01/27 12:50:35;;;;;;;13.93;6.53;;;6.50;94.10;;;;;;4974368;28;20032;-70
2022/01/27 12:53:09;;;;;;;18.67;9.18;;;6.60;94.10;;;;;;4968204;28;20515;-71
2022/01/27 12:55:37;;;;;;;13.68;7.57;;;6.60;93.80;;;;;;4983603;28;20393;-73
2022/01/27 12:58:30;;;;;;;15.50;7.93;;;6.60;94.10;;;;;;4976125;28;20430;-68
2022/01/27 13:00:55;;;;;;;15.25;7.40;;;6.70;94.10;;;;;;4980001;28;20050;-72
2022/01/27 13:03:21;;;;;;;13.60;7.22;;;6.80;94.00;;;;;;4972454;28;20042;-72
2022/01/27 13:05:50;;;;;;;14.27;6.97;;;6.90;93.90;;;;;;4990069;28;20545;-72
2022/01/27 13:08:18;;;;;;;11.57;5.72;;;6.80;93.80;;;;;;4952941;28;20486;-71
2022/01/27 13:10:53;;;;;;;10.55;5.78;;;6.70;94.00;;;;;;4974636;28;20062;-71
2022/01/27 13:13:33;;;;;;;10.55;5.38;;;6.80;94.00;;;;;;4983458;28;20034;-70
2022/01/27 13:16:06;;;;;;;9.82;5.40;;;6.80;94.10;;;;;;4979471;28;20812;-73
2022/01/27 13:18:43;;;;;;;7.95;4.75;;;6.90;93.90;;;;;;4977408;28;20038;-71
2022/01/27 13:21:28;;;;;;;8.70;5.18;;;6.90;93.80;;;;;;4977573;28;20167;-73
2022/01/27 13:24:02;;;;;;;8.30;4.93;;;7.00;93.70;;;;;;4977991;28;20030;-74
2022/01/27 13:26:28;;;;;;;8.88;5.05;;;7.00;93.60;;;;;;4982546;28;20644;-74
2022/01/27 13:28:58;;;;;;;8.52;4.70;;;7.10;93.40;;;;;;4982207;28;20042;-74
2022/01/27 13:31:26;;;;;;;11.35;5.05;;;7.10;93.40;;;;;;4969036;28;20061;-74
2022/01/27 13:33:52;;;;;;;6.57;3.97;;;7.10;93.50;;;;;;4979721;28;20037;-74
2022/01/27 13:36:19;;;;;;;8.13;4.88;;;7.10;93.40;;;;;;4977385;28;20483;-74
2022/01/27 13:39:01;;;;;;;9.65;4.65;;;7.20;93.40;;;;;;4977469;28;20032;-74
2022/01/27 13:41:29;;;;;;;7.40;4.93;;;7.30;93.40;;;;;;4982182;28;20044;-72
2022/01/27 13:44:13;;;;;;;7.40;3.97;;;7.30;93.30;;;;;;4970120;28;20034;-70
2022/01/27 13:46:48;;;;;;;5.28;3.58;;;7.30;93.20;;;;;;4971543;28;20042;-70
2022/01/27 13:49:22;;;;;;;9.63;4.40;;;7.40;93.00;;;;;;4985134;28;20038;-70
2022/01/27 13:51:59;;;;;;;7.32;4.22;;;7.40;92.90;;;;;;4979611;28;20391;-70
2022/01/27 13:54:31;;;;;;;5.10;3.47;;;7.40;92.90;;;;;;4970987;28;20039;-71
2022/01/27 13:57:34;;;;;;;6.28;3.55;;;7.40;93.00;;;;;;4968704;28;20038;-71
2022/01/27 14:00:09;;;;;;;6.43;4.00;;;7.50;93.10;;;;;;4964157;28;20049;-71
2022/01/27 14:02:40;;;;;;;6.10;3.97;;;7.50;93.00;;;;;;4976612;28;20065;-71
2022/01/27 14:05:14;;;;;;;7.75;4.32;;;7.50;93.10;;;;;;4971927;28;20034;-70
2022/01/27 14:07:58;;;;;;;6.22;3.70;;;7.40;93.10;;;;;;4985609;28;20035;-69
2022/01/27 14:10:28;;;;;;;5.68;3.83;;;7.40;93.20;;;;;;4975260;28;20097;-71
2022/01/27 14:13:00;;;;;;;5.15;3.85;;;7.40;93.40;;;;;;4976254;28;20034;-70
2022/01/27 14:15:27;;;;;;;7.30;3.72;;;7.40;93.60;;;;;;4974899;28;20084;-71
2022/01/27 14:17:58;;;;;;;6.15;3.88;;;7.50;93.50;;;;;;4982305;28;20037;-70